sim
Sign-in with your pilot id or email,
or register
Callsign
Passwort

Schedule Details

Flight Number: OEO2128
Departure: Frankfurt Airport (EDDF) at 12:10
Arrival: Thessaloniki International Airport (LGTS) at 14:40

Weather Information
Getting current METAR information for EDDF 172220Z 18007KT 9999 -RA FEW007 BKN025 17/16 Q1011 NOSIG
Getting current METAR information for LGTS 172220Z VRB03KT 9999 FEW025 21/16 Q1015 NOSIG

Schedule Frequency

Route Map